Time;durP1;ratioP1;P1;durP2;ratioP2;P2;SDS_P1;SDS_P2;PMS_P1;PMS_P2;Temp;Humidity;BMP_temperature;BMP_pressure;BME280_temperature;BME280_humidity;BME280_pressure;Samples;Min_cycle;Max_cycle;Signal;HPM_P1;HPM_P2
2023/03/31 00:01:08;;;;;;;0.30;0.30;;;;;;;10.31;100.00;98884.41;4455521;32;34436;-84
2023/03/31 00:03:42;;;;;;;0.43;0.43;;;;;;;10.37;100.00;98887.78;4454352;32;33384;-84
2023/03/31 00:06:16;;;;;;;0.95;0.95;;;;;;;10.41;100.00;98881.66;4455417;32;34582;-84
2023/03/31 00:08:50;;;;;;;0.30;0.30;;;;;;;10.10;100.00;98878.69;4454373;32;35830;-84
2023/03/31 00:11:21;;;;;;;0.90;0.90;;;;;;;10.18;100.00;98886.34;4454385;32;34469;-84
2023/03/31 00:13:49;;;;;;;0.30;0.30;;;;;;;10.14;100.00;98884.69;4454467;32;32811;-84
2023/03/31 00:16:18;;;;;;;1.05;1.05;;;;;;;10.12;100.00;98881.25;4455375;32;33993;-84
2023/03/31 00:18:49;;;;;;;1.17;1.15;;;;;;;10.56;100.00;98877.91;4455405;32;35840;-84
2023/03/31 00:21:32;;;;;;;0.80;0.80;;;;;;;11.02;100.00;98870.97;4455379;32;34183;-84
2023/03/31 00:24:03;;;;;;;0.30;0.30;;;;;;;10.96;100.00;98877.16;4455444;32;34306;-83
2023/03/31 00:26:33;;;;;;;0.40;0.40;;;;;;;11.43;100.00;98876.19;4455325;32;33873;-83
2023/03/31 00:29:04;;;;;;;1.45;1.33;;;;;;;11.39;100.00;98881.47;4454298;32;34405;-84
2023/03/31 00:31:33;;;;;;;1.27;1.17;;;;;;;11.53;98.31;98868.16;4454522;32;34318;-84
2023/03/31 00:34:01;;;;;;;0.40;0.40;;;;;;;11.40;99.67;98877.12;4454167;32;34373;-83
2023/03/31 00:36:29;;;;;;;0.40;0.40;;;;;;;11.44;97.70;98873.56;4455293;32;34015;-84
2023/03/31 00:39:01;;;;;;;0.60;0.60;;;;;;;11.62;96.17;98863.63;4455260;32;34742;-84
2023/03/31 00:41:29;;;;;;;0.30;0.30;;;;;;;11.37;97.35;98861.56;4454186;32;34142;-84
2023/03/31 00:44:12;;;;;;;0.60;0.60;;;;;;;11.62;94.95;98863.63;4455227;32;33401;-84
2023/03/31 00:47:06;;;;;;;0.30;0.30;;;;;;;10.93;98.35;98865.94;4455248;32;34009;-83
2023/03/31 00:49:44;;;;;;;0.30;0.30;;;;;;;11.31;94.91;98864.28;4455199;32;34723;-85
2023/03/31 00:52:17;;;;;;;1.37;1.27;;;;;;;10.77;100.00;98855.81;4454072;32;35184;-84
2023/03/31 00:54:49;;;;;;;0.32;0.32;;;;;;;11.18;96.31;98861.94;4454110;32;33037;-84
2023/03/31 00:57:17;;;;;;;0.75;0.75;;;;;;;11.30;95.16;98865.19;4454069;32;34011;-83
2023/03/31 00:59:57;;;;;;;0.93;0.73;;;;;;;10.92;96.62;98865.06;4455048;32;35452;-84
2023/03/31 01:02:26;;;;;;;0.40;0.40;;;;;;;11.35;93.85;98863.34;4453870;32;34583;-83
2023/03/31 01:04:58;;;;;;;0.50;0.50;;;;;;;11.10;95.67;98863.88;4454844;32;34130;-84
2023/03/31 01:07:32;;;;;;;0.65;0.65;;;;;;;11.45;92.62;98857.00;4453945;32;33835;-84
2023/03/31 01:10:03;;;;;;;0.68;0.68;;;;;;;11.36;94.02;98857.22;4455067;32;35792;-83
2023/03/31 01:12:33;;;;;;;0.40;0.40;;;;;;;11.28;93.74;98852.19;4453908;32;33982;-84
2023/03/31 01:15:03;;;;;;;0.47;0.47;;;;;;;10.74;97.45;98845.44;4453975;32;32931;-84
2023/03/31 01:17:31;;;;;;;8.20;1.48;;;;;;;11.48;93.54;98841.31;4455024;32;35333;-83
2023/03/31 01:20:21;;;;;;;0.60;0.60;;;;;;;11.39;93.16;98841.53;4453657;32;34663;-84
2023/03/31 01:23:25;;;;;;;0.62;0.62;;;;;;;11.51;91.45;98843.00;4454991;32;34460;-83
2023/03/31 01:26:17;;;;;;;7.43;2.80;;;;;;;11.48;90.94;98841.31;4429037;32;33526;-83
2023/03/31 01:29:12;;;;;;;0.35;0.35;;;;;;;11.52;90.23;98842.97;4453676;32;33938;-83
2023/03/31 01:32:05;;;;;;;0.70;0.70;;;;;;;11.32;90.65;98855.59;4453764;32;34727;-83
2023/03/31 01:35:11;;;;;;;0.40;0.40;;;;;;;11.25;89.83;98854.00;4454940;32;35080;-84
2023/03/31 01:37:46;;;;;;;2.75;0.70;;;;;;;11.07;91.28;98852.66;4454878;32;33381;-83
2023/03/31 01:40:24;;;;;;;0.40;0.40;;;;;;;11.46;89.60;98845.72;4454883;32;33515;-84
2023/03/31 01:43:13;;;;;;;0.60;0.60;;;;;;;11.26;90.35;98848.75;4453797;32;34019;-84
2023/03/31 01:45:53;;;;;;;0.40;0.40;;;;;;;11.20;89.99;98852.34;4454916;32;35055;-84
2023/03/31 01:48:22;;;;;;;0.90;0.88;;;;;;;11.32;88.25;98847.75;4454813;32;33049;-84
2023/03/31 01:50:57;;;;;;;0.30;0.30;;;;;;;11.61;85.55;98848.84;4454834;32;34014;-84
2023/03/31 01:53:32;;;;;;;1.27;0.75;;;;;;;11.20;87.28;98852.34;4453322;32;34881;-84
2023/03/31 01:56:30;;;;;;;0.60;0.60;;;;;;;10.72;89.01;98856.81;4454674;32;35106;-83
2023/03/31 01:59:02;;;;;;;0.45;0.45;;;;;;;10.87;87.54;98860.84;4454709;32;33698;-84
2023/03/31 02:01:47;;;;;;;1.33;1.02;;;;;;;11.03;87.05;98857.06;4453617;32;34776;-84
2023/03/31 02:04:20;;;;;;;0.52;0.52;;;;;;;11.04;87.28;98857.91;4453577;32;34616;-84
2023/03/31 02:06:55;;;;;;;3.40;1.05;;;;;;;10.80;87.64;98850.56;4453640;32;34605;-84
2023/03/31 02:09:26;;;;;;;2.28;2.15;;;;;;;10.88;85.87;98854.75;4453621;32;33109;-84
2023/03/31 02:11:56;;;;;;;1.20;1.12;;;;;;;10.38;87.82;98850.47;4453537;32;33788;-84
2023/03/31 02:14:27;;;;;;;0.50;0.50;;;;;;;9.69;93.54;98851.59;4453326;32;34937;-84
2023/03/31 02:16:57;;;;;;;0.80;0.80;;;;;;;9.35;97.68;98843.41;4452683;32;34446;-84
2023/03/31 02:19:30;;;;;;;1.10;0.45;;;;;;;8.79;100.00;98844.09;4454598;32;32914;-84
2023/03/31 02:21:58;;;;;;;0.40;0.40;;;;;;;8.95;100.00;98841.31;4453443;32;33939;-83
2023/03/31 02:24:27;;;;;;;0.43;0.43;;;;;;;9.07;99.67;98836.84;4440705;32;34624;-84
2023/03/31 02:27:03;;;;;;;0.60;0.60;;;;;;;8.77;100.00;98837.19;4453120;32;35100;-84
2023/03/31 02:29:32;;;;;;;;;;;;;;;8.99;96.99;98841.25;4453897;32;34221;-83
2023/03/31 02:32:24;;;;;;;0.70;0.70;;;;;;;8.71;96.55;98841.56;4454829;32;34842;-84
2023/03/31 02:34:55;;;;;;;0.32;0.32;;;;;;;8.47;100.00;98834.94;4454665;32;34927;-84
2023/03/31 02:37:24;;;;;;;1.10;0.98;;;;;;;8.37;100.00;98828.09;4453100;32;34340;-84
2023/03/31 02:39:54;;;;;;;1.73;0.90;;;;;;;8.22;100.00;98828.22;4454439;32;33478;-83
2023/03/31 02:42:23;;;;;;;0.82;0.82;;;;;;;8.45;100.00;98823.72;4453394;32;34001;-83
2023/03/31 02:44:51;;;;;;;0.43;0.43;;;;;;;8.48;98.82;98825.41;4453344;32;36131;-83
2023/03/31 02:47:21;;;;;;;0.52;0.52;;;;;;;8.15;100.00;98837.78;4454282;32;35071;-83
2023/03/31 02:49:55;;;;;;;2.85;1.23;;;;;;;7.66;100.00;98828.69;4454152;32;33799;-83
2023/03/31 02:52:48;;;;;;;0.40;0.40;;;;;;;7.89;100.00;98830.25;4453165;32;33896;-83
2023/03/31 02:55:47;;;;;;;0.57;0.57;;;;;;;7.34;100.00;98829.78;4454060;32;34619;-83
2023/03/31 02:58:40;;;;;;;0.50;0.50;;;;;;;7.26;100.00;98825.50;4454366;32;35048;-84
2023/03/31 03:01:40;;;;;;;0.47;0.47;;;;;;;7.22;100.00;98828.09;4453244;32;33423;-83
2023/03/31 03:04:24;;;;;;;0.40;0.40;;;;;;;7.47;100.00;98829.69;4454078;32;33520;-83
2023/03/31 03:07:18;;;;;;;0.40;0.40;;;;;;;7.18;100.00;98835.87;4454015;32;35048;-83
2023/03/31 03:10:00;;;;;;;0.73;0.73;;;;;;;6.85;100.00;98837.78;4451960;32;34016;-84
2023/03/31 03:12:54;;;;;;;0.40;0.40;;;;;;;6.42;100.00;98831.03;4453010;32;33432;-83
2023/03/31 03:15:22;;;;;;;0.40;0.40;;;;;;;6.33;100.00;98823.25;4453767;32;34773;-83
2023/03/31 03:17:51;;;;;;;0.40;0.40;;;;;;;6.23;100.00;98825.00;4453751;32;35698;-84
2023/03/31 03:20:20;;;;;;;0.40;0.40;;;;;;;6.18;100.00;98823.31;4439923;32;33598;-83
2023/03/31 03:22:48;;;;;;;1.27;1.17;;;;;;;6.26;100.00;98830.19;4452504;32;33457;-83
2023/03/31 03:25:19;;;;;;;0.77;0.77;;;;;;;6.02;100.00;98822.47;4453703;32;34528;-83
2023/03/31 03:27:47;;;;;;;0.70;0.70;;;;;;;5.81;100.00;98828.47;4453231;32;34009;-83
2023/03/31 03:30:15;;;;;;;0.40;0.40;;;;;;;5.92;100.00;98821.56;4455706;32;34152;-83
2023/03/31 03:32:45;;;;;;;0.40;0.40;;;;;;;5.55;100.00;98829.28;4455793;32;33366;-83
2023/03/31 03:35:13;;;;;;;0.50;0.50;;;;;;;5.45;100.00;98820.69;4455881;32;33956;-83
2023/03/31 03:37:41;;;;;;;0.50;0.50;;;;;;;5.37;100.00;98813.78;4455701;32;34428;-83
2023/03/31 03:40:10;;;;;;;0.50;0.50;;;;;;;4.85;100.00;98815.38;4454550;32;34785;-83
2023/03/31 03:42:38;;;;;;;1.42;1.05;;;;;;;4.98;100.00;98813.69;4455761;32;33516;-83
2023/03/31 03:45:07;;;;;;;1.08;1.08;;;;;;;4.89;100.00;98814.50;4455727;32;33795;-83
2023/03/31 03:47:35;;;;;;;0.50;0.50;;;;;;;5.04;100.00;98808.53;4454387;32;34656;-83
2023/03/31 03:50:04;;;;;;;0.50;0.50;;;;;;;4.96;100.00;98809.38;4455915;32;35299;-83
2023/03/31 03:52:32;;;;;;;0.50;0.50;;;;;;;5.27;100.00;98828.38;4454299;32;34442;-83
2023/03/31 03:55:01;;;;;;;0.50;0.50;;;;;;;5.45;100.00;98814.63;4455648;32;34325;-83
2023/03/31 03:57:29;;;;;;;0.50;0.50;;;;;;;5.38;100.00;98830.97;4455493;32;35015;-83
2023/03/31 03:59:57;;;;;;;0.60;0.60;;;;;;;4.90;100.00;98823.97;4455549;32;34724;-83
2023/03/31 04:02:27;;;;;;;0.50;0.50;;;;;;;4.93;100.00;98820.53;4454400;32;33444;-83
2023/03/31 04:04:56;;;;;;;0.50;0.50;;;;;;;4.96;100.00;98820.56;4455553;32;34696;-83
2023/03/31 04:07:24;;;;;;;0.50;0.50;;;;;;;4.92;100.00;98811.97;4455433;32;34916;-83
2023/03/31 04:09:52;;;;;;;0.50;0.50;;;;;;;5.53;100.00;98799.19;4455301;32;34010;-83
2023/03/31 04:12:20;;;;;;;5.03;3.22;;;;;;;4.88;100.00;98793.88;4455574;32;33114;-83
2023/03/31 04:14:48;;;;;;;0.50;0.50;;;;;;;4.70;100.00;98792.94;4455376;32;33594;-83
2023/03/31 04:17:16;;;;;;;0.60;0.60;;;;;;;4.68;100.00;98789.50;4454204;32;35025;-83
2023/03/31 04:19:49;;;;;;;0.50;0.50;;;;;;;4.78;100.00;98787.81;4455346;32;34431;-83
2023/03/31 04:22:19;;;;;;;0.85;0.80;;;;;;;4.70;100.00;98785.22;4454353;32;33160;-83
2023/03/31 04:24:51;;;;;;;0.50;0.50;;;;;;;5.14;100.00;98791.38;4455494;32;34408;-83
2023/03/31 04:27:20;;;;;;;0.50;0.50;;;;;;;5.43;100.00;98788.81;4455344;32;35043;-83
2023/03/31 04:29:53;;;;;;;1.27;1.23;;;;;;;5.31;100.00;98796.53;4455361;32;34528;-83
2023/03/31 04:32:23;;;;;;;0.52;0.52;;;;;;;5.35;100.00;98793.12;4455374;32;33596;-83
2023/03/31 04:35:01;;;;;;;0.50;0.50;;;;;;;5.29;100.00;98799.16;4454168;32;33663;-83
2023/03/31 04:37:33;;;;;;;0.40;0.40;;;;;;;5.69;100.00;98808.66;4455315;32;35137;-83
2023/03/31 04:40:08;;;;;;;0.50;0.50;;;;;;;5.96;100.00;98792.28;4441496;32;33243;-83
2023/03/31 04:42:36;;;;;;;0.50;0.50;;;;;;;5.65;100.00;98801.78;4454258;32;32744;-83
2023/03/31 04:45:05;;;;;;;0.50;0.50;;;;;;;5.68;100.00;98791.41;4454151;32;34731;-83
2023/03/31 04:47:33;;;;;;;0.50;0.50;;;;;;;5.81;100.00;98793.16;4455211;32;35073;-83
2023/03/31 04:50:02;;;;;;;0.75;0.75;;;;;;;5.48;100.00;98788.84;4455125;32;35007;-83
2023/03/31 04:52:30;;;;;;;1.20;0.98;;;;;;;5.49;100.00;98786.25;4454932;32;33285;-83
2023/03/31 04:54:58;;;;;;;0.50;0.50;;;;;;;5.35;100.00;98779.34;4455199;32;34017;-83
2023/03/31 04:57:26;;;;;;;0.75;0.75;;;;;;;5.38;100.00;98775.03;4453755;32;34162;-83
2023/03/31 04:59:55;;;;;;;0.90;0.68;;;;;;;5.60;100.00;98772.50;4455136;32;34047;-83
2023/03/31 05:02:23;;;;;;;1.30;1.15;;;;;;;5.53;100.00;98781.09;4455426;32;33323;-83
2023/03/31 05:04:52;;;;;;;1.23;1.12;;;;;;;5.71;100.00;98781.09;4453978;32;33635;-83
2023/03/31 05:07:20;;;;;;;0.60;0.60;;;;;;;6.74;100.00;98773.13;4455015;32;35978;-83
2023/03/31 05:09:48;;;;;;;0.93;0.93;;;;;;;8.11;100.00;98768.69;4453817;32;35108;-83
2023/03/31 05:12:16;;;;;;;1.20;0.60;;;;;;;9.05;97.39;98767.59;4455082;32;33459;-83
2023/03/31 05:14:44;;;;;;;3.30;2.58;;;;;;;9.93;89.36;98766.25;4455051;32;33464;-83
2023/03/31 05:17:12;;;;;;;0.57;0.57;;;;;;;10.00;85.77;98768.69;4455043;32;34584;-83
2023/03/31 05:19:40;;;;;;;0.52;0.52;;;;;;;11.49;82.96;98767.44;4455149;32;34761;-83
2023/03/31 05:22:09;;;;;;;0.93;0.93;;;;;;;12.59;79.43;98767.25;4455002;32;33310;-84
2023/03/31 05:24:37;;;;;;;2.47;1.48;;;;;;;14.58;70.55;98767.88;4453834;32;33897;-84
2023/03/31 05:27:05;;;;;;;0.88;0.85;;;;;;;16.38;61.36;98766.91;4454970;32;34616;-84
2023/03/31 05:29:34;;;;;;;0.75;0.75;;;;;;;16.99;58.06;98766.81;4453649;32;34393;-84
2023/03/31 05:32:02;;;;;;;0.65;0.60;;;;;;;16.66;58.46;98763.94;4454963;32;33328;-84
2023/03/31 05:34:30;;;;;;;0.60;0.60;;;;;;;16.62;59.27;98762.34;4453761;32;34119;-84
2023/03/31 05:36:59;;;;;;;0.50;0.50;;;;;;;15.49;63.14;98760.94;4454899;32;35700;-84
2023/03/31 05:39:31;;;;;;;0.25;0.25;;;;;;;15.75;64.20;98765.16;4454872;32;34464;-84
2023/03/31 05:42:00;;;;;;;0.88;0.55;;;;;;;15.81;63.16;98764.06;4454926;32;33089;-84
2023/03/31 05:44:28;;;;;;;0.55;0.55;;;;;;;15.23;62.53;98768.09;4453665;32;34123;-85
2023/03/31 05:46:56;;;;;;;2.25;1.67;;;;;;;14.81;66.08;98766.19;4453551;32;34762;-85
2023/03/31 05:49:24;;;;;;;1.05;1.00;;;;;;;15.06;66.74;98760.88;4449911;32;146615;-85
2023/03/31 05:51:52;;;;;;;0.25;0.25;;;;;;;14.54;68.56;98761.03;4453522;32;33359;-85
2023/03/31 05:54:21;;;;;;;0.68;0.68;;;;;;;14.32;71.45;98763.53;4454811;32;34568;-83
2023/03/31 05:56:50;;;;;;;0.70;0.70;;;;;;;13.59;73.53;98767.75;4454676;32;35510;-86
2023/03/31 05:59:18;;;;;;;1.45;1.37;;;;;;;14.95;68.14;98761.28;4453450;32;34409;-85
2023/03/31 06:01:47;;;;;;;1.58;1.05;;;;;;;15.65;65.87;98756.81;4453501;32;34189;-84
2023/03/31 06:04:16;;;;;;;3.30;1.23;;;;;;;15.43;65.95;98755.97;4454618;32;34006;-84
2023/03/31 06:06:45;;;;;;;2.75;1.42;;;;;;;14.45;72.04;98769.19;4454638;32;34939;-84
2023/03/31 06:09:12;;;;;;;1.10;1.05;;;;;;;13.98;77.18;98759.47;4454772;32;34349;-85
2023/03/31 06:11:41;;;;;;;0.40;0.40;;;;;;;14.14;75.54;98753.72;4454827;32;33291;-85
2023/03/31 06:14:10;;;;;;;1.30;0.90;;;;;;;14.16;73.62;98757.97;4454582;32;34667;-83
2023/03/31 06:16:39;;;;;;;0.50;0.50;;;;;;;13.92;75.54;98745.75;4453505;32;35760;-88
2023/03/31 06:19:09;;;;;;;0.68;0.68;;;;;;;13.89;72.89;98745.84;4454510;32;34030;-90
2023/03/31 06:21:40;;;;;;;0.52;0.52;;;;;;;13.53;77.23;98751.37;4454591;32;34072;-87
2023/03/31 06:24:11;;;;;;;4.12;0.65;;;;;;;14.00;75.78;98746.34;4454577;32;34678;-85
2023/03/31 06:26:40;;;;;;;0.65;0.65;;;;;;;14.48;72.47;98740.28;4454405;32;35768;-89
2023/03/31 06:29:08;;;;;;;1.30;1.20;;;;;;;14.17;74.78;98744.00;4454312;32;35026;-85
2023/03/31 06:31:38;;;;;;;0.60;0.60;;;;;;;15.43;70.64;98740.22;4453194;32;33323;-89
2023/03/31 06:34:05;;;;;;;1.02;0.95;;;;;;;14.85;72.12;98741.56;4454369;32;34344;-92
2023/03/31 06:36:34;;;;;;;0.60;0.60;;;;;;;15.02;73.42;98742.69;4454907;32;35911;-89
2023/03/31 06:39:02;;;;;;;2.92;2.47;;;;;;;15.99;64.90;98744.94;4455056;32;34310;-89
2023/03/31 06:41:30;;;;;;;0.93;0.93;;;;;;;14.97;69.69;98746.34;4454505;32;33394;-85
2023/03/31 06:43:58;;;;;;;1.08;0.98;;;;;;;14.40;70.91;98751.03;4453052;32;34502;-84
2023/03/31 06:46:27;;;;;;;0.88;0.88;;;;;;;15.49;69.24;98753.06;4453059;32;35830;-85
2023/03/31 06:48:55;;;;;;;0.35;0.35;;;;;;;15.88;64.17;98757.63;4454402;32;35096;-85
2023/03/31 06:51:23;;;;;;;2.03;1.70;;;;;;;15.06;67.10;98760.03;4454196;32;33034;-85
2023/03/31 06:53:51;;;;;;;0.55;0.55;;;;;;;15.72;64.35;98760.88;4453989;32;33550;-86
2023/03/31 06:56:19;;;;;;;2.30;1.33;;;;;;;14.83;69.98;98763.50;4452812;32;35687;-83
2023/03/31 06:58:47;;;;;;;0.85;0.85;;;;;;;15.46;67.68;98761.94;4453901;32;34456;-82
2023/03/31 07:01:15;;;;;;;1.02;0.95;;;;;;;15.99;63.02;98760.69;4453180;32;34117;-86
2023/03/31 07:03:42;;;;;;;0.35;0.35;;;;;;;16.12;66.77;98758.37;4454833;32;34536;-82
2023/03/31 07:06:11;;;;;;;0.95;0.95;;;;;;;16.39;64.62;98756.31;4455942;32;34560;-90
2023/03/31 07:08:39;;;;;;;0.70;0.70;;;;;;;16.83;62.88;98756.13;4455909;32;34842;-85
2023/03/31 07:11:07;;;;;;;0.35;0.35;;;;;;;16.78;61.69;98752.84;4455810;32;33050;-86
2023/03/31 07:13:35;;;;;;;0.40;0.40;;;;;;;15.94;61.74;98749.53;4455949;32;34192;-86
2023/03/31 07:16:05;;;;;;;0.50;0.50;;;;;;;15.71;66.26;98743.41;4454744;32;35809;-91
2023/03/31 07:18:35;;;;;;;1.23;1.10;;;;;;;16.21;66.07;98747.47;4455844;32;34337;-91
2023/03/31 07:21:04;;;;;;;0.70;0.70;;;;;;;16.80;62.17;98743.13;4454745;32;33350;-91
2023/03/31 07:23:37;;;;;;;0.77;0.70;;;;;;;15.62;62.09;98737.69;4455722;32;33537;-87
2023/03/31 07:26:08;;;;;;;0.55;0.55;;;;;;;15.63;64.07;98735.00;4456718;32;34975;-90
2023/03/31 07:28:36;;;;;;;0.60;0.60;;;;;;;16.82;61.13;98728.13;4454636;32;34332;-91
2023/03/31 07:31:13;;;;;;;0.75;0.75;;;;;;;17.90;58.50;98733.53;4455659;32;34241;-91
2023/03/31 07:33:41;;;;;;;0.85;0.70;;;;;;;17.68;61.50;98732.84;4455894;32;34707;-90
2023/03/31 07:36:09;;;;;;;0.60;0.60;;;;;;;18.86;56.44;98718.84;4455624;32;35010;-90
2023/03/31 07:38:42;;;;;;;0.40;0.40;;;;;;;17.52;58.33;98719.59;4454611;32;34543;-91
2023/03/31 07:41:17;;;;;;;0.32;0.32;;;;;;;17.67;54.79;98715.38;4454628;32;32228;-90
2023/03/31 07:43:45;;;;;;;0.40;0.40;;;;;;;17.23;58.25;98717.44;4454544;32;33806;-90
2023/03/31 07:46:17;;;;;;;2.42;0.95;;;;;;;17.85;55.32;98709.16;4454442;32;35777;-87
2023/03/31 07:48:46;;;;;;;0.55;0.55;;;;;;;17.47;58.26;98722.47;4441775;32;34323;-91
2023/03/31 07:51:16;;;;;;;0.40;0.40;;;;;;;17.30;60.03;98711.91;4455501;32;34539;-86
2023/03/31 07:53:44;;;;;;;1.55;0.80;;;;;;;18.54;56.48;98707.38;4454249;32;33416;-87
2023/03/31 07:56:12;;;;;;;1.85;1.75;;;;;;;18.45;56.73;98710.50;4455525;32;35063;-91
2023/03/31 07:58:41;;;;;;;0.30;0.30;;;;;;;18.68;55.73;98714.56;4455792;32;35120;-88
2023/03/31 08:01:11;;;;;;;1.75;1.50;;;;;;;18.71;55.86;98706.47;4455615;32;33112;-88
2023/03/31 08:03:39;;;;;;;0.20;0.20;;;;;;;18.54;57.43;98700.31;4455499;32;33968;-85
2023/03/31 08:06:07;;;;;;;0.50;0.50;;;;;;;18.74;56.22;98701.91;4455464;32;35044;-89
2023/03/31 08:08:37;;;;;;;0.30;0.30;;;;;;;18.54;55.44;98702.94;4454373;32;34412;-90
2023/03/31 08:11:05;;;;;;;1.55;0.95;;;;;;;17.49;61.01;98686.38;4441616;32;33579;-90
2023/03/31 08:13:35;;;;;;;0.57;0.57;;;;;;;18.35;56.93;98686.41;4454732;32;34509;-85
2023/03/31 08:16:03;;;;;;;1.10;0.95;;;;;;;18.36;57.18;98682.84;4454214;32;33835;-90
2023/03/31 08:18:32;;;;;;;0.55;0.55;;;;;;;18.36;55.57;98683.69;4455512;32;34167;-89
2023/03/31 08:21:00;;;;;;;1.33;1.23;;;;;;;18.16;55.66;98676.84;4455429;32;33494;-89
2023/03/31 08:23:28;;;;;;;1.23;0.93;;;;;;;18.52;56.92;98682.87;4455310;32;33783;-90
2023/03/31 08:26:07;;;;;;;0.60;0.60;;;;;;;18.91;54.95;98679.03;4454112;32;35094;-85
2023/03/31 08:28:35;;;;;;;0.55;0.52;;;;;;;18.84;56.19;98678.53;4455353;32;34413;-90
2023/03/31 08:31:05;;;;;;;1.65;0.60;;;;;;;18.76;53.96;98665.72;4454139;32;33305;-89
2023/03/31 08:33:33;;;;;;;0.90;0.88;;;;;;;18.82;52.57;98656.66;4454156;32;34192;-89
2023/03/31 08:36:09;;;;;;;0.65;0.65;;;;;;;18.17;53.65;98653.97;4454005;32;35789;-88
2023/03/31 08:38:45;;;;;;;0.30;0.30;;;;;;;18.13;57.46;98644.56;4457206;32;34035;-89
2023/03/31 08:41:22;;;;;;;0.88;0.88;;;;;;;18.86;56.68;98652.91;4454471;32;33539;-88
2023/03/31 08:43:52;;;;;;;2.85;1.35;;;;;;;18.56;60.40;98639.59;4455263;32;33585;-84
2023/03/31 08:46:22;;;;;;;1.17;1.15;;;;;;;19.14;55.82;98639.00;4455279;32;35004;-89
2023/03/31 08:48:53;;;;;;;0.32;0.32;;;;;;;19.23;51.60;98636.78;4455073;32;35084;-85
2023/03/31 08:51:26;;;;;;;1.75;1.30;;;;;;;19.91;51.86;98628.41;4454004;32;34292;-89
2023/03/31 08:54:07;;;;;;;0.30;0.30;;;;;;;18.68;56.62;98620.47;4453816;32;34549;-90
2023/03/31 08:56:38;;;;;;;0.40;0.40;;;;;;;18.84;56.91;98619.66;4441328;32;34886;-88
2023/03/31 08:59:17;;;;;;;0.30;0.30;;;;;;;19.44;55.56;98617.03;4455180;32;34739;-90
2023/03/31 09:05:51;;;;;;;2.20;1.15;;;;;;;19.79;54.37;98619.41;4454583;32;33460;-88
2023/03/31 09:08:34;;;;;;;0.43;0.43;;;;;;;20.21;51.07;98599.25;4453908;32;35135;-85
2023/03/31 09:11:06;;;;;;;0.60;0.60;;;;;;;19.63;50.26;98610.69;4453907;32;34522;-86
2023/03/31 09:14:17;;;;;;;0.40;0.40;;;;;;;20.19;49.95;98606.44;4455055;32;34224;-89
2023/03/31 09:17:20;;;;;;;0.37;0.37;;;;;;;19.92;51.94;98601.03;4454966;32;33523;-91
2023/03/31 09:19:57;;;;;;;1.67;1.05;;;;;;;20.32;49.99;98603.03;4453839;32;35008;-89
2023/03/31 09:22:34;;;;;;;0.40;0.40;;;;;;;20.19;50.02;98590.56;4453929;32;34440;-88
2023/03/31 09:25:12;;;;;;;0.77;0.73;;;;;;;20.83;50.00;98590.09;4453818;32;33005;-91
2023/03/31 09:27:46;;;;;;;0.20;0.20;;;;;;;20.63;50.35;98594.88;4455063;32;33507;-83
2023/03/31 09:30:21;;;;;;;0.40;0.40;;;;;;;20.00;50.18;98582.91;4453847;32;35947;-88
2023/03/31 09:32:52;;;;;;;0.30;0.30;;;;;;;19.79;51.38;98584.25;4454894;32;34445;-88
2023/03/31 09:35:24;;;;;;;0.40;0.40;;;;;;;20.74;47.61;98580.09;4454071;32;33640;-88
2023/03/31 09:37:53;;;;;;;0.30;0.30;;;;;;;19.98;49.14;98558.38;4441207;32;32867;-89
2023/03/31 09:40:26;;;;;;;0.60;0.60;;;;;;;20.86;49.00;98562.56;4454843;32;35104;-91
2023/03/31 09:43:01;;;;;;;0.45;0.45;;;;;;;20.56;49.20;98561.78;4453777;32;35025;-92
2023/03/31 09:45:32;;;;;;;1.30;1.17;;;;;;;21.63;45.25;98562.75;4453707;32;33024;-85
2023/03/31 09:48:05;;;;;;;0.62;0.52;;;;;;;20.61;50.40;98551.81;4453705;32;34690;-87
2023/03/31 09:50:45;;;;;;;1.55;0.65;;;;;;;21.67;50.54;98558.94;4453812;32;34875;-90
2023/03/31 09:53:17;;;;;;;0.95;0.95;;;;;;;20.43;51.24;98545.84;4453087;32;34503;-83
2023/03/31 09:55:51;;;;;;;0.50;0.50;;;;;;;20.34;48.69;98551.72;4453754;32;34198;-91
2023/03/31 09:58:23;;;;;;;0.32;0.32;;;;;;;20.33;49.51;98551.81;4453670;32;33831;-83
2023/03/31 10:01:11;;;;;;;0.20;0.20;;;;;;;21.20;48.46;98529.41;4453686;32;34968;-89
2023/03/31 10:03:58;;;;;;;0.30;0.30;;;;;;;20.82;49.47;98530.16;4453513;32;34040;-84
2023/03/31 10:06:26;;;;;;;0.40;0.40;;;;;;;19.63;51.89;98528.81;4453590;32;33599;-84
2023/03/31 10:08:55;;;;;;;2.05;1.58;;;;;;;20.06;50.17;98534.12;4453475;32;33802;-92
2023/03/31 10:11:23;;;;;;;0.40;0.40;;;;;;;20.18;48.48;98530.69;4454796;32;35019;-90
2023/03/31 10:14:10;;;;;;;0.45;0.40;;;;;;;21.23;46.43;98513.34;4454566;32;35082;-92
2023/03/31 10:16:55;;;;;;;0.68;0.68;;;;;;;19.06;50.02;98508.44;4453599;32;33455;-83
2023/03/31 10:19:26;;;;;;;0.45;0.45;;;;;;;19.61;50.38;98517.50;4453433;32;33924;-93
2023/03/31 10:22:00;;;;;;;0.82;0.82;;;;;;;20.12;48.38;98514.37;4453545;32;35015;-90
2023/03/31 10:24:42;;;;;;;0.20;0.20;;;;;;;19.45;50.10;98499.09;4454504;32;34822;-91
2023/03/31 10:27:18;;;;;;;1.17;0.93;;;;;;;19.04;51.50;98512.97;4453438;32;33540;-88
2023/03/31 10:29:46;;;;;;;0.20;0.20;;;;;;;18.91;52.37;98489.09;4453273;32;32379;-85
2023/03/31 10:32:27;;;;;;;0.98;0.95;;;;;;;18.48;52.20;98487.13;4452232;32;35922;-91
2023/03/31 10:34:57;;;;;;;0.30;0.25;;;;;;;18.40;52.16;98485.84;4453130;32;34714;-93
2023/03/31 10:37:28;;;;;;;0.30;0.30;;;;;;;18.79;51.65;98485.34;4452742;32;34089;-92
2023/03/31 10:40:07;;;;;;;0.55;0.55;;;;;;;18.68;51.16;98479.84;4456767;32;33565;-92
2023/03/31 10:42:36;;;;;;;1.00;0.80;;;;;;;18.76;51.44;98482.91;4453915;32;34572;-85
2023/03/31 10:45:24;;;;;;;0.70;0.70;;;;;;;18.79;52.01;98487.97;4453056;32;34327;-83
2023/03/31 10:48:08;;;;;;;0.50;0.50;;;;;;;19.17;48.50;98486.72;4453192;32;31819;-92
2023/03/31 10:50:36;;;;;;;0.60;0.60;;;;;;;20.07;47.12;98472.41;4452893;32;34867;-91
2023/03/31 10:53:12;;;;;;;0.80;0.75;;;;;;;20.67;46.30;98462.41;4454051;32;34928;-90
2023/03/31 10:56:08;;;;;;;0.30;0.30;;;;;;;22.62;43.22;98461.16;4453321;32;34400;-84
2023/03/31 10:59:18;;;;;;;0.62;0.62;;;;;;;23.72;43.25;98453.66;4452986;32;33415;-91
2023/03/31 11:02:05;;;;;;;0.25;0.25;;;;;;;24.58;40.39;98452.09;4452892;32;34816;-92
2023/03/31 11:04:52;;;;;;;0.25;0.25;;;;;;;25.85;35.55;98453.69;4454090;32;34579;-84
2023/03/31 11:07:53;;;;;;;1.85;0.88;;;;;;;23.00;39.78;98446.81;4452858;32;35155;-85
2023/03/31 11:10:24;;;;;;;0.57;0.57;;;;;;;21.81;41.63;98465.22;4454018;32;34244;-88
2023/03/31 11:13:32;;;;;;;0.35;0.35;;;;;;;20.23;45.56;98459.88;4453870;32;33814;-88
2023/03/31 11:16:22;;;;;;;0.40;0.40;;;;;;;19.66;46.82;98471.38;4428525;32;35396;-89
2023/03/31 11:19:15;;;;;;;0.35;0.35;;;;;;;19.06;48.36;98443.34;4453764;32;34033;-86
2023/03/31 11:22:11;;;;;;;0.62;0.62;;;;;;;18.28;50.66;98446.09;4452744;32;33567;-90
2023/03/31 11:24:52;;;;;;;0.60;0.60;;;;;;;18.79;49.94;98437.03;4452753;32;34641;-83
2023/03/31 11:27:40;;;;;;;0.62;0.62;;;;;;;18.46;51.20;98427.50;4453715;32;35405;-88
2023/03/31 11:30:14;;;;;;;0.45;0.45;;;;;;;18.79;50.89;98415.94;4452616;32;35212;-84
2023/03/31 11:32:50;;;;;;;;;;;;;;;18.36;52.37;98393.78;4454003;32;33432;-93
2023/03/31 11:35:37;;;;;;;0.70;0.70;;;;;;;18.40;52.40;98388.31;4452491;32;34880;-90
2023/03/31 11:38:16;;;;;;;0.98;0.98;;;;;;;18.97;53.17;98377.94;4452470;32;33578;-91
2023/03/31 11:40:53;;;;;;;0.62;0.62;;;;;;;19.41;50.75;98358.53;4452427;32;33648;-86
2023/03/31 11:43:48;;;;;;;0.65;0.65;;;;;;;19.14;51.65;98369.81;4453517;32;33326;-83
2023/03/31 11:46:25;;;;;;;1.27;1.10;;;;;;;18.92;52.23;98358.91;4452314;32;33862;-91
2023/03/31 11:49:08;;;;;;;0.30;0.30;;;;;;;19.92;50.19;98354.47;4454198;32;35978;-90
2023/03/31 11:52:02;;;;;;;2.80;0.62;;;;;;;20.81;48.77;98333.53;4455620;32;34336;-90
2023/03/31 11:54:30;;;;;;;0.37;0.37;;;;;;;23.03;43.61;98332.37;4455182;32;33600;-83
2023/03/31 11:57:02;;;;;;;0.30;0.30;;;;;;;22.49;44.32;98337.38;4455572;32;33506;-92
2023/03/31 11:59:31;;;;;;;0.30;0.30;;;;;;;21.92;46.20;98331.00;4454474;32;34573;-85
2023/03/31 12:02:16;;;;;;;0.25;0.25;;;;;;;21.35;44.60;98332.44;4454449;32;33203;-92
2023/03/31 12:04:50;;;;;;;0.60;0.60;;;;;;;21.49;44.52;98317.37;4454485;32;33325;-84
2023/03/31 12:07:28;;;;;;;0.30;0.30;;;;;;;21.86;43.89;98314.69;4454430;32;33716;-92
2023/03/31 12:10:10;;;;;;;0.37;0.37;;;;;;;22.20;43.80;98309.53;4455605;32;34710;-91